Elmira Corning Regional Airport
KELM : now visible

Airfield :











YOU CAN JOIN US ON...

 
LOGIN :

Register | Disclaimer

   EN    FR    IT 

 









Legend :    VFR   Marginal VFR   IFR   Intensive IFR   Very Intensive IFR
Visi :
Ceiling :
>= 8 km
>= 3000ft
5 to 8 km
1000 to 3000 ft
1500m to 5 km
500 to 1000 ft
800 to 1500m
200 to 500 ft
< 800m
< 200 ft
Symbols :   Thunderstorms  Fog  Heavy snow  Heavy precipitations  Wind > 20 kt






- Airport Elevation : 954 ft
- IATA code : ELM


KELM - Elmira Corning Regional

CURRENT METAR :
  • 231753Z 00000KT 10SM SCT070 21/07 A3019 RMK AO2 SLP224 T02060072 10228 20111 50000

EXPIRED METARs :
  • 231653Z 28010KT 10SM FEW060 21/07 A3019 RMK AO2 SLP224 T02110072
  • 231553Z 25005KT 10SM BKN055 19/08 A3019 RMK AO2 SLP225 T01940078

TAF KELM
Valid from the 23 at 18:00 until the 24 at 18:00 UTC


231725Z 2318/2418 27008KT P6SM FEW070 SCT150
FM232200 VRB03KT P6SM FEW250
TEMPO 2408/2412 2SM BR
FM241200 00000KT P6SM SKC
FM241400 17009G18KT P6SM SKC
KZNY FIR / North America



MET'MAP, your aeronautical weather chart ! - Copyright ORBIFLY December 2007 - Disclaimer

ORBIFLY MET'MAP TEAM :

Programming & Development : Alexandra Zaïnal
Concept & original design : Baudouin d'Aumeries
Assistance for programming : Marc-Olivier Méhu
Technical & hardware support : Manuel Goepfert

Contact : metmap@orbifly.com




SOURCES & CREDITS :

   NOAA       Earth
Advisory